createdAt,value
2017-08-07T00:02:22.695Z,"    0"
2017-08-07T00:07:18.987Z,"    0"
2017-08-07T00:12:15.834Z,"    0"
2017-08-07T00:17:11.415Z,"    0"
2017-08-07T00:22:08.129Z,"    0"
2017-08-07T00:27:03.491Z,"    0"
2017-08-07T00:32:01.390Z,"    0"
2017-08-07T00:36:58.102Z,"    0"
2017-08-07T00:41:53.751Z,"    0"
2017-08-07T00:46:49.589Z,"    0"
2017-08-07T00:51:46.515Z,"    0"
2017-08-07T00:56:42.444Z,"    0"
2017-08-07T01:01:40.224Z,"    0"
2017-08-07T01:06:35.491Z,"    0"
2017-08-07T01:11:31.272Z,"    0"
2017-08-07T01:16:27.619Z,"    0"
2017-08-07T01:21:24.611Z,"    0"
2017-08-07T01:26:20.302Z,"    0"
2017-08-07T01:31:16.129Z,"    0"
2017-08-07T01:36:12.807Z,"    0"
2017-08-07T01:41:09.198Z,"    0"
2017-08-07T01:46:05.031Z,"    0"
2017-08-07T01:51:01.966Z,"    0"
2017-08-07T01:55:57.675Z,"    0"
2017-08-07T02:00:53.387Z,"    0"
2017-08-07T02:05:49.821Z,"    0"
2017-08-07T02:10:47.029Z,"    0"
2017-08-07T02:15:42.849Z,"    0"
2017-08-07T02:20:38.718Z,"    0"
2017-08-07T02:25:34.674Z,"    0"
2017-08-07T02:30:32.301Z,"    0"
2017-08-07T02:35:28.469Z,"    0"
2017-08-07T02:40:23.881Z,"    0"
2017-08-07T02:45:20.823Z,"    0"
2017-08-07T02:50:16.419Z,"    0"
2017-08-07T02:55:12.292Z,"    0"
2017-08-07T03:00:08.785Z,"    0"
2017-08-07T03:05:04.368Z,"    0"
2017-08-07T03:10:00.777Z,"    0"
2017-08-07T03:14:57.525Z,"    0"
2017-08-07T03:19:53.141Z,"    0"
2017-08-07T03:24:49.367Z,"    0"
2017-08-07T03:29:45.001Z,"    0"
2017-08-07T03:34:40.924Z,"    0"
2017-08-07T03:39:37.121Z,"    0"
2017-08-07T03:44:32.918Z,"    0"
2017-08-07T03:49:29.727Z,"    0"
2017-08-07T03:54:26.469Z,"    0"
2017-08-07T03:59:23.122Z,"    5"
2017-08-07T04:04:19.736Z,"    5"
2017-08-07T04:09:15.251Z,"   10"
2017-08-07T04:14:10.954Z,"   10"
2017-08-07T04:19:06.896Z,"   15"
2017-08-07T04:24:03.803Z,"   20"
2017-08-07T04:28:59.392Z,"   25"
2017-08-07T04:33:55.202Z,"   30"
2017-08-07T04:38:51.167Z,"   35"
2017-08-07T04:43:47.184Z,"   50"
2017-08-07T04:48:43.959Z,"   55"
2017-08-07T04:53:40.021Z,"   55"
2017-08-07T04:58:36.195Z,"   60"
2017-08-07T05:03:33.261Z,"   60"
2017-08-07T05:08:28.997Z,"   65"
2017-08-07T05:13:25.782Z,"   70"
2017-08-07T05:18:22.791Z,"   75"
2017-08-07T05:23:18.430Z,"   80"
2017-08-07T05:28:14.389Z,"   80"
2017-08-07T05:33:10.038Z,"   85"
2017-08-07T05:38:05.819Z,"   85"
2017-08-07T05:43:02.397Z,"   90"
2017-08-07T05:47:58.838Z,"   90"
2017-08-07T05:52:54.850Z,"   95"
2017-08-07T05:57:51.768Z,"   95"
2017-08-07T06:02:48.468Z,"  100"
2017-08-07T06:07:44.783Z,"  100"
2017-08-07T06:12:40.826Z,"  100"
2017-08-07T06:17:36.536Z,"  100"
2017-08-07T06:22:32.900Z,"  110"
2017-08-07T06:27:28.896Z,"  110"
2017-08-07T06:32:24.981Z,"  105"
2017-08-07T06:37:21.046Z,"  150"
2017-08-07T06:42:17.302Z,"  160"
2017-08-07T06:47:14.581Z,"  190"
2017-08-07T06:52:11.768Z,"  210"
2017-08-07T06:57:07.709Z,"  225"
2017-08-07T07:02:04.869Z,"  225"
2017-08-07T07:07:00.867Z,"  220"
2017-08-07T07:11:58.039Z,"  190"
2017-08-07T07:16:53.831Z,"  175"
2017-08-07T07:21:49.750Z,"  150"
2017-08-07T07:26:46.324Z,"  150"
2017-08-07T07:31:41.764Z,"  190"
2017-08-07T07:36:39.787Z,"  215"
2017-08-07T07:41:35.654Z,"  270"
2017-08-07T07:46:32.909Z,"  330"
2017-08-07T07:51:30.301Z,"  470"
2017-08-07T07:56:28.222Z,"  875"
2017-08-07T08:01:25.979Z," 1080"
2017-08-07T08:06:25.285Z," 1195"
2017-08-07T08:11:22.957Z," 1075"
2017-08-07T08:16:21.383Z," 1155"
2017-08-07T08:21:18.600Z," 1215"
2017-08-07T08:26:16.886Z," 1035"
2017-08-07T08:31:14.155Z," 1100"
2017-08-07T08:36:10.737Z," 1275"
2017-08-07T08:41:08.211Z," 1150"
2017-08-07T08:46:04.847Z," 1230"
2017-08-07T08:51:01.040Z," 1095"
2017-08-07T08:55:57.087Z," 1120"
2017-08-07T09:00:51.741Z,"  210"
2017-08-07T09:05:45.925Z,"  270"
2017-08-07T09:10:40.979Z,"  215"
2017-08-07T09:15:35.836Z,"  215"
2017-08-07T09:20:31.350Z,"  475"
2017-08-07T09:25:29.526Z," 1070"
2017-08-07T09:30:28.545Z," 1525"
2017-08-07T09:35:27.435Z," 1490"
2017-08-07T09:40:24.980Z," 1355"
2017-08-07T09:45:21.572Z," 1565"
2017-08-07T09:50:19.735Z," 1550"
2017-08-07T09:55:17.694Z," 1620"
2017-08-07T10:00:16.883Z,"  335"
2017-08-07T10:05:11.522Z," 1745"
2017-08-07T10:10:07.809Z," 1595"
2017-08-07T10:15:05.119Z," 1425"
2017-08-07T10:20:01.765Z," 1645"
2017-08-07T10:24:59.369Z," 1730"
2017-08-07T10:29:54.271Z," 1285"
2017-08-07T10:34:50.598Z," 1645"
2017-08-07T10:39:46.604Z," 1635"
2017-08-07T10:44:43.372Z," 1560"
2017-08-07T10:49:40.541Z," 1640"
2017-08-07T10:54:38.033Z," 1630"
2017-08-07T10:59:34.091Z," 1575"
2017-08-07T11:04:31.428Z," 1615"
2017-08-07T11:09:27.610Z," 1405"
2017-08-07T11:14:25.310Z,"  890"
2017-08-07T11:19:21.453Z," 1760"
2017-08-07T11:24:18.095Z,"  945"
2017-08-07T11:29:13.672Z," 1680"
2017-08-07T11:34:09.809Z,"  270"
2017-08-07T11:39:03.951Z," 1675"
2017-08-07T11:43:56.708Z,"  785"
2017-08-07T11:48:56.747Z," 1810"
2017-08-07T11:53:55.941Z," 1905"
2017-08-07T11:58:53.994Z," 1845"
2017-08-07T12:03:48.099Z,"  365"
2017-08-07T12:08:42.251Z,"  265"
2017-08-07T12:13:37.581Z,"  530"
2017-08-07T12:18:35.286Z," 1865"
2017-08-07T12:23:28.790Z,"  275"
2017-08-07T12:28:22.446Z,"  470"
2017-08-07T12:33:21.390Z," 1465"
2017-08-07T12:38:21.106Z,"  320"
2017-08-07T12:43:17.138Z," 1720"
2017-08-07T12:48:15.816Z," 1480"
2017-08-07T12:53:09.158Z,"  355"
2017-08-07T12:58:03.696Z,"  400"
2017-08-07T13:02:59.791Z,"  665"
2017-08-07T13:07:56.470Z,"  380"
2017-08-07T13:12:53.135Z,"  270"
2017-08-07T13:17:49.595Z," 1795"
2017-08-07T13:22:46.682Z," 1550"
2017-08-07T13:27:43.052Z," 1205"
2017-08-07T13:32:40.019Z,"  290"
2017-08-07T13:37:34.626Z," 1195"
2017-08-07T13:42:30.694Z,"  975"
2017-08-07T13:47:27.045Z,"  295"
2017-08-07T13:52:22.357Z,"  265"
2017-08-07T13:57:18.715Z,"  265"
2017-08-07T14:02:16.912Z,"  935"
2017-08-07T14:07:11.762Z,"  275"
2017-08-07T14:12:07.510Z,"  230"
2017-08-07T14:22:08.531Z,"  235"
2017-08-07T14:27:06.107Z,"  590"
2017-08-07T14:32:03.488Z,"  440"
2017-08-07T14:37:00.794Z,"  205"
2017-08-07T14:41:57.199Z,"  190"
2017-08-07T14:46:54.226Z,"  175"
2017-08-07T14:51:50.919Z,"  160"
2017-08-07T14:56:47.558Z,"  135"
2017-08-07T15:01:48.167Z,"  145"
2017-08-07T15:06:43.747Z,"  135"
2017-08-07T15:16:39.866Z,"  125"
2017-08-07T15:21:35.827Z,"  120"
2017-08-07T15:26:32.678Z,"  120"
2017-08-07T15:31:29.101Z,"  125"
2017-08-07T15:36:25.989Z,"  115"
2017-08-07T15:41:21.686Z,"  110"
2017-08-07T15:46:18.842Z,"  115"
2017-08-07T15:51:15.653Z,"  120"
2017-08-07T15:56:11.496Z,"  130"
2017-08-07T16:01:13.135Z,"  145"
2017-08-07T16:06:08.357Z,"  120"
2017-08-07T16:21:10.719Z,"   90"
2017-08-07T16:26:07.097Z,"   95"
2017-08-07T16:31:04.951Z,"   90"
2017-08-07T16:36:04.817Z,"  100"
2017-08-07T16:41:02.620Z,"  105"
2017-08-07T16:45:59.420Z,"  110"
2017-08-07T16:50:55.223Z,"  110"
2017-08-07T17:00:58.565Z,"  110"
2017-08-07T17:05:55.359Z,"  105"
2017-08-07T17:10:53.949Z,"  100"
2017-08-07T17:15:50.878Z,"   95"
2017-08-07T17:20:49.663Z,"   85"
2017-08-07T17:25:48.664Z,"   75"
2017-08-07T17:30:45.096Z,"   75"
2017-08-07T17:35:42.032Z,"   70"
2017-08-07T17:40:39.693Z,"   75"
2017-08-07T17:45:36.590Z,"   75"
2017-08-07T17:50:39.394Z,"   75"
2017-08-07T17:55:35.817Z,"   70"
2017-08-07T18:05:33.455Z,"   55"
2017-08-07T18:10:36.733Z,"   45"
2017-08-07T18:15:32.574Z,"   45"
2017-08-07T18:20:30.273Z,"   35"
2017-08-07T18:25:26.886Z,"   30"
2017-08-07T18:30:24.166Z,"   25"
2017-08-07T18:35:19.872Z,"   25"
2017-08-07T18:40:15.895Z,"   20"
2017-08-07T18:45:12.046Z,"   15"
2017-08-07T18:50:10.262Z,"   10"
2017-08-07T18:55:06.794Z,"   10"
2017-08-07T19:00:09.596Z,"    5"
2017-08-07T19:05:06.216Z,"    5"
2017-08-07T19:10:02.910Z,"    0"
2017-08-07T19:14:59.766Z,"    0"
2017-08-07T19:20:00.558Z,"    0"
2017-08-07T19:24:58.465Z,"    0"
2017-08-07T19:29:54.764Z,"    0"
2017-08-07T19:34:50.700Z,"    0"
2017-08-07T19:39:46.634Z,"    0"
2017-08-07T19:49:43.285Z,"    0"
2017-08-07T19:54:40.565Z,"    0"
2017-08-07T19:59:36.737Z,"    0"
2017-08-07T20:04:34.919Z,"    0"
2017-08-07T20:09:32.634Z,"    0"
2017-08-07T20:14:29.844Z,"    0"
2017-08-07T20:19:35.029Z,"    0"
2017-08-07T20:24:31.042Z,"    0"
2017-08-07T20:29:28.822Z,"    0"
2017-08-07T20:34:26.464Z,"    0"
2017-08-07T20:39:22.354Z,"    0"
2017-08-07T20:44:26.617Z,"    0"
2017-08-07T20:49:25.941Z,"    0"
2017-08-07T20:54:22.928Z,"    0"
2017-08-07T20:59:19.765Z,"    0"
2017-08-07T21:04:15.471Z,"    0"
2017-08-07T21:09:12.606Z,"    0"
2017-08-07T21:14:08.217Z,"    0"
2017-08-07T21:19:05.569Z,"    0"
2017-08-07T21:24:03.807Z,"    0"
2017-08-07T21:28:59.288Z,"    0"
2017-08-07T21:33:55.824Z,"    0"
2017-08-07T21:38:53.144Z,"    0"
2017-08-07T21:43:49.132Z,"    0"
2017-08-07T21:53:46.497Z,"    0"
2017-08-07T21:58:43.457Z,"    0"
2017-08-07T22:03:40.630Z,"    0"
2017-08-07T22:08:40.766Z,"    0"
2017-08-07T22:13:35.952Z,"    0"
2017-08-07T22:18:34.011Z,"    0"
2017-08-07T22:23:33.640Z,"    0"
2017-08-07T22:33:36.509Z,"    0"
2017-08-07T22:43:35.590Z,"    0"
2017-08-07T22:58:40.173Z,"    0"
2017-08-07T23:03:39.327Z,"    0"
2017-08-07T23:08:39.374Z,"    0"
2017-08-07T23:23:45.984Z,"    0"
2017-08-07T23:59:09.428Z,"    0"
